Time;durP1;ratioP1;P1;durP2;ratioP2;P2;SDS_P1;SDS_P2;PMS_P1;PMS_P2;Temp;Humidity;BMP_temperature;BMP_pressure;BME280_temperature;BME280_humidity;BME280_pressure;Samples;Min_cycle;Max_cycle;Signal;HPM_P1;HPM_P2
2022/07/18 00:00:11;;;;;;;5.93;3.67;;;;;;;25.26;40.83;102313.63;7394118;19;20014;-57
2022/07/18 00:02:40;;;;;;;5.65;3.65;;;;;;;25.24;41.36;102302.19;7393882;19;20030;-52
2022/07/18 00:05:12;;;;;;;7.55;3.60;;;;;;;25.00;41.96;102308.59;7390083;19;20022;-55
2022/07/18 00:07:41;;;;;;;5.10;3.38;;;;;;;25.25;41.67;102306.59;7391176;19;20026;-57
2022/07/18 00:10:10;;;;;;;4.65;3.70;;;;;;;24.98;41.78;102302.53;7393624;19;20037;-51
2022/07/18 00:12:39;;;;;;;5.95;3.80;;;;;;;24.94;42.02;102306.44;7394665;19;20486;-54
2022/07/18 00:15:11;;;;;;;6.72;3.63;;;;;;;24.90;42.18;102313.84;7393915;19;20475;-53
2022/07/18 00:17:40;;;;;;;6.40;3.90;;;;;;;24.88;42.12;102305.09;7395861;19;20018;-51
2022/07/18 00:20:13;;;;;;;8.02;3.72;;;;;;;24.82;42.29;102303.78;7391080;19;20345;-54
2022/07/18 00:22:42;;;;;;;6.05;3.58;;;;;;;24.79;42.18;102295.13;7392394;19;20025;-52
2022/07/18 00:25:11;;;;;;;5.30;3.47;;;;;;;24.74;41.77;102298.16;7394514;19;20018;-56
2022/07/18 00:27:40;;;;;;;7.25;3.53;;;;;;;24.69;42.33;102301.25;7390774;19;20022;-57
2022/07/18 00:30:11;;;;;;;6.20;3.40;;;;;;;24.67;42.53;102294.28;7393934;19;20014;-50
2022/07/18 00:32:40;;;;;;;6.40;3.55;;;;;;;24.64;42.66;102302.59;7392750;19;20015;-56
2022/07/18 00:35:12;;;;;;;6.38;3.55;;;;;;;24.62;42.37;102293.81;7392893;19;20018;-56
2022/07/18 00:37:41;;;;;;;6.20;3.72;;;;;;;24.62;42.89;102289.31;7390349;19;20016;-54
2022/07/18 00:40:12;;;;;;;6.47;3.40;;;;;;;24.62;43.02;102280.44;7393802;19;20368;-53
2022/07/18 00:42:41;;;;;;;6.45;3.65;;;;;;;24.61;42.88;102295.63;7390836;19;20014;-54
2022/07/18 00:45:11;;;;;;;5.60;3.60;;;;;;;24.57;42.47;102287.94;7393623;19;20017;-56
2022/07/18 00:47:40;;;;;;;8.68;3.97;;;;;;;24.58;42.76;102281.63;7394185;19;20471;-55
2022/07/18 00:50:13;;;;;;;6.03;3.35;;;;;;;24.57;42.73;102280.75;7392532;19;20034;-54
2022/07/18 00:52:42;;;;;;;4.90;3.30;;;;;;;24.53;42.76;102277.47;7391612;19;20022;-55
2022/07/18 00:55:11;;;;;;;5.43;3.40;;;;;;;24.52;43.11;102274.94;7393402;19;20372;-54
2022/07/18 00:57:42;;;;;;;6.45;3.70;;;;;;;24.52;43.35;102270.41;7390036;19;20010;-50
2022/07/18 01:02:58;;;;;;;8.40;4.13;;;;;;;24.45;43.42;102271.88;7391675;19;20015;-55
2022/07/18 01:05:29;;;;;;;6.65;3.60;;;;;;;24.42;42.98;102266.78;7388583;19;20015;-55
2022/07/18 01:07:58;;;;;;;5.53;3.25;;;;;;;24.44;42.27;102272.84;7394184;19;20010;-56
2022/07/18 01:10:27;;;;;;;5.93;3.83;;;;;;;24.42;42.37;102264.09;7391884;19;20014;-56
2022/07/18 01:12:56;;;;;;;6.10;3.33;;;;;;;24.41;42.21;102273.09;7392785;19;20014;-53
2022/07/18 01:15:25;;;;;;;5.78;3.10;;;;;;;24.38;42.07;102265.31;7391944;19;20096;-56
2022/07/18 01:17:54;;;;;;;6.63;3.50;;;;;;;24.38;42.01;102269.81;7401348;19;20013;-56
2022/07/18 01:20:23;;;;;;;5.72;3.33;;;;;;;24.30;41.77;102265.94;7398708;19;20017;-56
2022/07/18 01:22:54;;;;;;;7.00;3.72;;;;;;;24.35;42.06;102263.72;7397142;19;20025;-52
2022/07/18 01:25:23;;;;;;;6.68;4.13;;;;;;;24.24;42.29;102266.41;7398120;19;20029;-53
2022/07/18 01:27:52;;;;;;;8.02;3.65;;;;;;;24.26;42.83;102263.63;7397234;19;20043;-56
2022/07/18 01:30:22;;;;;;;5.80;3.40;;;;;;;24.27;42.39;102271.53;7399329;19;20013;-55
2022/07/18 01:32:58;;;;;;;6.57;3.75;;;;;;;24.24;42.81;102270.91;7399115;19;20011;-56
2022/07/18 01:35:28;;;;;;;5.55;3.70;;;;;;;24.23;42.89;102266.53;7397707;19;20014;-55
2022/07/18 01:38:01;;;;;;;6.38;3.85;;;;;;;24.17;42.23;102265.19;7395721;19;20021;-54
2022/07/18 01:40:30;;;;;;;7.55;3.75;;;;;;;24.18;42.83;102259.72;7396842;19;20021;-57
2022/07/18 01:42:59;;;;;;;7.03;3.42;;;;;;;24.18;42.84;102259.72;7396300;19;20018;-51
2022/07/18 01:45:28;;;;;;;5.75;3.03;;;;;;;24.21;42.26;102257.78;7394394;19;20121;-54
2022/07/18 01:47:57;;;;;;;5.75;3.50;;;;;;;24.16;41.24;102259.00;7398663;19;20018;-52
2022/07/18 01:50:26;;;;;;;6.25;3.15;;;;;;;24.26;40.99;102255.59;7398124;19;20018;-56
2022/07/18 01:52:55;;;;;;;5.35;3.17;;;;;;;24.10;40.88;102250.59;7398065;19;20014;-52
2022/07/18 01:55:26;;;;;;;7.70;3.67;;;;;;;24.06;41.46;102246.47;7397988;19;20040;-56
2022/07/18 01:57:55;;;;;;;7.45;4.00;;;;;;;24.05;41.26;102255.47;7396105;19;20471;-51
2022/07/18 02:00:24;;;;;;;7.35;3.40;;;;;;;24.01;41.27;102252.16;7394667;19;20017;-55
2022/07/18 02:02:53;;;;;;;6.22;3.25;;;;;;;23.97;41.20;102254.25;7391415;19;20360;-54
2022/07/18 02:05:22;;;;;;;5.55;3.72;;;;;;;23.98;41.79;102247.91;7393652;19;20021;-53
2022/07/18 02:07:51;;;;;;;6.57;3.60;;;;;;;23.97;42.19;102240.88;7393795;19;20019;-46
2022/07/18 02:10:24;;;;;;;8.68;3.28;;;;;;;23.94;42.58;102238.44;7397484;19;20292;-44
2022/07/18 02:12:55;;;;;;;;;;;;;;;23.97;42.35;102240.00;7398637;19;20011;-43
2022/07/18 02:15:24;;;;;;;6.57;3.50;;;;;;;23.86;42.54;102243.50;7398073;19;19918;-49
2022/07/18 02:17:53;;;;;;;8.25;4.05;;;;;;;23.78;42.29;102237.88;7394199;19;20010;-48
2022/07/18 02:20:22;;;;;;;7.30;3.63;;;;;;;23.79;42.94;102237.75;7396872;19;20418;-45
2022/07/18 02:22:51;;;;;;;5.65;3.50;;;;;;;23.77;42.93;102226.34;7390757;19;20026;-44
2022/07/18 02:25:20;;;;;;;11.02;3.70;;;;;;;23.75;42.69;102230.09;7397022;19;20033;-46
2022/07/18 02:27:49;;;;;;;8.63;3.88;;;;;;;23.68;42.95;102240.41;7393823;19;20041;-47
2022/07/18 02:30:21;;;;;;;9.50;3.90;;;;;;;23.64;43.11;102233.59;7392512;19;20019;-48
2022/07/18 02:32:50;;;;;;;5.90;3.45;;;;;;;23.65;43.38;102222.78;7394249;19;20018;-45
2022/07/18 02:35:19;;;;;;;9.27;3.70;;;;;;;23.65;43.06;102232.63;7395546;19;20018;-48
2022/07/18 02:37:48;;;;;;;5.18;3.58;;;;;;;23.65;44.06;102221.94;7393601;19;20019;-47
2022/07/18 02:40:17;;;;;;;7.40;3.92;;;;;;;23.60;43.37;102230.31;7395094;19;20022;-44
2022/07/18 02:42:45;;;;;;;5.50;3.90;;;;;;;23.58;44.07;102226.06;7393149;19;20019;-44
2022/07/18 02:45:20;;;;;;;16.30;4.20;;;;;;;23.56;43.67;102225.34;7393202;19;20018;-46
2022/07/18 02:47:48;;;;;;;12.75;4.28;;;;;;;23.54;43.93;102227.25;7392521;19;20021;-44
2022/07/18 02:50:17;;;;;;;9.30;3.78;;;;;;;23.50;43.72;102227.50;7392103;19;20021;-44
2022/07/18 02:52:47;;;;;;;8.23;3.75;;;;;;;23.53;44.08;102228.22;7391930;19;20371;-49
2022/07/18 02:55:16;;;;;;;5.43;3.47;;;;;;;23.54;44.09;102227.25;7396280;19;20018;-44
2022/07/18 02:57:46;;;;;;;9.70;3.85;;;;;;;23.50;44.11;102232.00;7393151;19;20035;-44
2022/07/18 03:00:16;;;;;;;5.93;3.25;;;;;;;23.47;44.64;102234.94;7392618;19;20123;-44
2022/07/18 03:02:48;;;;;;;7.53;4.00;;;;;;;23.47;44.84;102230.41;7392912;19;20490;-44
2022/07/18 03:05:17;;;;;;;7.93;3.90;;;;;;;23.47;44.93;102232.25;7394579;19;20027;-47
2022/07/18 03:07:46;;;;;;;6.43;4.20;;;;;;;23.48;44.97;102218.75;7392632;19;20022;-46
2022/07/18 03:10:15;;;;;;;8.43;3.92;;;;;;;23.46;45.09;102220.69;7394181;19;20019;-45
2022/07/18 03:12:44;;;;;;;6.10;3.80;;;;;;;23.46;44.96;102220.69;7391401;19;20021;-44
2022/07/18 03:15:13;;;;;;;6.95;3.95;;;;;;;23.36;44.86;102216.16;7394597;19;20481;-45
2022/07/18 03:17:42;;;;;;;7.40;4.20;;;;;;;23.32;45.12;102218.22;7392859;19;20033;-45
2022/07/18 03:20:14;;;;;;;7.00;3.92;;;;;;;23.29;45.23;102216.63;7392970;19;20104;-45
2022/07/18 03:22:43;;;;;;;8.03;3.80;;;;;;;23.25;45.70;102208.94;7390228;19;20103;-49
2022/07/18 03:25:12;;;;;;;8.63;3.85;;;;;;;23.30;45.87;102222.84;7394900;19;20271;-44
2022/07/18 03:27:41;;;;;;;6.70;4.22;;;;;;;23.26;46.39;102222.19;7391155;19;20030;-46
2022/07/18 03:30:11;;;;;;;5.72;3.85;;;;;;;23.23;46.04;102224.28;7390638;19;20018;-45
2022/07/18 03:32:40;;;;;;;6.63;3.85;;;;;;;23.21;46.37;102212.81;7392484;19;20328;-44
2022/07/18 03:35:10;;;;;;;5.90;3.53;;;;;;;23.26;46.54;102210.66;7393097;19;20403;-48
2022/07/18 03:37:41;;;;;;;8.32;3.97;;;;;;;23.20;46.04;102208.44;7390184;19;20474;-43
2022/07/18 03:40:11;;;;;;;7.22;4.30;;;;;;;23.06;45.94;102196.94;7391117;19;20025;-43
2022/07/18 03:42:41;;;;;;;6.22;4.18;;;;;;;23.05;46.36;102202.41;7389331;19;20014;-46
2022/07/18 03:45:11;;;;;;;8.05;4.68;;;;;;;23.05;46.09;102192.56;7393046;19;20091;-48
2022/07/18 03:47:40;;;;;;;5.45;4.07;;;;;;;23.06;47.18;102190.75;7391942;19;20471;-46
2022/07/18 03:50:10;;;;;;;9.18;4.13;;;;;;;23.11;46.96;102188.59;7390589;19;20471;-44
2022/07/18 03:52:41;;;;;;;6.10;3.90;;;;;;;23.09;46.54;102188.69;7389998;19;20010;-44
2022/07/18 03:55:11;;;;;;;7.35;3.95;;;;;;;23.10;46.44;102195.75;7393435;19;20010;-44
2022/07/18 03:57:40;;;;;;;10.45;4.10;;;;;;;23.04;46.50;102181.97;7390363;19;20029;-48
2022/07/18 04:00:11;;;;;;;7.28;4.18;;;;;;;23.02;46.26;102186.59;7392424;19;20019;-48
2022/07/18 04:02:43;;;;;;;7.82;4.10;;;;;;;23.03;47.03;102185.66;7393818;19;20044;-46
2022/07/18 04:05:13;;;;;;;8.43;4.22;;;;;;;23.03;47.27;102188.31;7391559;19;20014;-49
2022/07/18 04:07:45;;;;;;;7.63;3.95;;;;;;;23.05;47.57;102189.88;7391024;19;20025;-44
2022/07/18 04:10:14;;;;;;;41.67;6.73;;;;;;;23.08;46.89;102197.69;7392722;19;20356;-45
2022/07/18 04:12:47;;;;;;;25.40;4.68;;;;;;;23.07;47.17;102179.09;7392409;19;20014;-46
2022/07/18 04:15:16;;;;;;;10.15;4.25;;;;;;;23.08;47.39;102184.34;7393916;19;20114;-44
2022/07/18 04:17:45;;;;;;;13.48;4.80;;;;;;;23.06;46.94;102180.06;7390758;19;20362;-45
2022/07/18 04:20:15;;;;;;;8.40;4.38;;;;;;;23.05;47.89;102181.03;7389723;19;20010;-45
2022/07/18 04:22:52;;;;;;;11.80;4.40;;;;;;;23.05;47.35;102179.19;7389531;19;20014;-49
2022/07/18 04:25:24;;;;;;;8.68;3.95;;;;;;;23.03;46.92;102175.78;7393778;19;20014;-48
2022/07/18 04:27:54;;;;;;;7.85;4.07;;;;;;;23.17;46.56;102171.25;7391191;19;20359;-45
2022/07/18 04:30:26;;;;;;;7.80;4.22;;;;;;;23.02;47.19;102175.91;7392290;19;20021;-50
2022/07/18 04:32:55;;;;;;;7.82;4.20;;;;;;;23.10;47.47;102170.84;7390150;19;20029;-49
2022/07/18 04:35:25;;;;;;;8.88;4.20;;;;;;;23.14;47.36;102177.69;7391950;19;20015;-44
2022/07/18 04:37:56;;;;;;;8.23;3.92;;;;;;;23.18;47.04;102189.00;7391233;19;20030;-43
2022/07/18 04:40:25;;;;;;;14.68;4.45;;;;;;;23.21;47.03;102175.38;7391745;19;20018;-48
2022/07/18 04:42:54;;;;;;;9.82;4.18;;;;;;;23.25;46.69;102179.53;7393588;19;20014;-45
2022/07/18 04:45:24;;;;;;;24.02;5.05;;;;;;;23.23;46.27;102176.97;7393655;19;20022;-48
2022/07/18 04:47:54;;;;;;;23.35;5.40;;;;;;;23.24;46.44;102169.78;7390393;19;20015;-45
2022/07/18 04:50:24;;;;;;;18.50;4.90;;;;;;;23.24;45.60;102169.78;7395726;19;20034;-50
2022/07/18 04:52:56;;;;;;;14.05;4.45;;;;;;;23.22;45.16;102177.09;7401436;19;20011;-46
2022/07/18 04:55:28;;;;;;;18.77;4.70;;;;;;;23.14;45.76;102169.69;7400514;19;20017;-43
2022/07/18 04:57:57;;;;;;;7.53;4.38;;;;;;;23.13;45.85;102170.63;7397207;19;20021;-46
2022/07/18 05:00:27;;;;;;;9.25;4.75;;;;;;;23.23;45.57;102166.28;7399609;19;20554;-44
2022/07/18 05:02:58;;;;;;;6.70;4.05;;;;;;;23.14;46.23;102162.50;7399963;19;20014;-45
2022/07/18 05:05:29;;;;;;;7.60;4.63;;;;;;;23.06;45.98;102164.03;7400885;19;20086;-44
2022/07/18 05:08:01;;;;;;;9.07;4.68;;;;;;;23.04;46.37;102163.28;7398922;19;20482;-48
2022/07/18 05:10:30;;;;;;;10.93;4.57;;;;;;;23.13;46.12;102165.28;7399525;19;20011;-50
2022/07/18 05:12:59;;;;;;;10.52;4.18;;;;;;;23.07;46.97;102171.09;7396100;19;20023;-46
2022/07/18 05:15:28;;;;;;;19.15;5.75;;;;;;;23.09;47.12;102169.97;7400214;19;20051;-47
2022/07/18 05:17:57;;;;;;;10.90;4.40;;;;;;;23.12;47.19;102176.94;7396095;19;20014;-46
2022/07/18 05:20:28;;;;;;;9.45;4.90;;;;;;;23.10;47.22;102171.69;7398979;19;20014;-51
2022/07/18 05:22:57;;;;;;;13.38;5.05;;;;;;;23.21;47.69;102173.59;7397825;19;20413;-49
2022/07/18 05:25:28;;;;;;;271.90;20.20;;;;;;;23.35;47.71;102169.81;7399099;19;20014;-47
2022/07/18 05:27:58;;;;;;;95.88;11.10;;;;;;;23.46;47.29;102177.03;7396112;19;20594;-45
2022/07/18 05:30:27;;;;;;;60.92;8.02;;;;;;;23.40;47.60;102175.69;7399212;19;20479;-47
2022/07/18 05:32:56;;;;;;;10.73;4.90;;;;;;;23.36;46.69;102174.22;7398878;19;20014;-43
2022/07/18 05:35:25;;;;;;;48.15;8.30;;;;;;;23.41;47.93;102169.38;7404102;19;20026;-48
2022/07/18 05:37:54;;;;;;;16.02;5.70;;;;;;;23.48;50.61;102175.94;7395721;19;20010;-47
2022/07/18 05:40:22;;;;;;;8.45;4.90;;;;;;;23.44;48.05;102174.47;7394675;19;20023;-45
2022/07/18 05:42:54;;;;;;;10.85;5.18;;;;;;;23.42;47.77;102175.56;7394222;19;20029;-48
2022/07/18 05:45:23;;;;;;;40.40;6.53;;;;;;;23.38;48.86;102184.78;7398798;19;20029;-46
2022/07/18 05:47:52;;;;;;;25.30;6.47;;;;;;;23.45;49.49;102176.16;7395164;19;20022;-48
2022/07/18 05:50:21;;;;;;;9.77;5.35;;;;;;;23.40;48.26;102170.34;7397951;19;20010;-49
2022/07/18 05:52:50;;;;;;;12.25;5.40;;;;;;;23.31;48.64;102179.06;7395623;19;20407;-43
2022/07/18 05:55:19;;;;;;;13.02;5.55;;;;;;;23.34;49.27;102176.16;7398867;19;20013;-47
2022/07/18 05:57:49;;;;;;;13.23;6.22;;;;;;;23.35;50.42;102163.63;7395541;19;20422;-43
2022/07/18 06:00:22;;;;;;;12.20;6.70;;;;;;;23.45;51.71;102170.81;7397296;19;20038;-46
2022/07/18 06:02:52;;;;;;;10.95;5.72;;;;;;;23.48;51.35;102162.56;7397653;19;20018;-48
2022/07/18 06:05:21;;;;;;;10.38;5.28;;;;;;;23.65;51.66;102165.72;7399029;19;20015;-48
2022/07/18 06:07:50;;;;;;;8.23;5.32;;;;;;;23.58;51.23;102161.84;7395285;19;20021;-45
2022/07/18 06:10:19;;;;;;;14.07;6.57;;;;;;;23.52;48.93;102156.97;7397708;19;20007;-50
2022/07/18 06:12:49;;;;;;;8.75;6.18;;;;;;;23.47;48.66;102154.66;7398150;19;20033;-48
2022/07/18 06:15:21;;;;;;;11.40;6.10;;;;;;;23.55;50.02;102143.34;7398689;19;20074;-44
2022/07/18 06:17:50;;;;;;;13.33;5.90;;;;;;;23.63;49.83;102141.78;7394677;19;20030;-45
2022/07/18 06:20:20;;;;;;;13.60;6.15;;;;;;;23.68;49.82;102136.03;7397300;19;21447;-51
2022/07/18 06:22:49;;;;;;;11.02;5.90;;;;;;;23.74;49.96;102140.06;7394509;19;20014;-46
2022/07/18 06:25:18;;;;;;;10.40;5.47;;;;;;;23.82;48.71;102134.94;7398226;19;20510;-45
2022/07/18 06:27:47;;;;;;;14.68;5.97;;;;;;;23.93;48.41;102128.78;7394394;19;20102;-45
2022/07/18 06:30:16;;;;;;;14.23;5.30;;;;;;;23.87;47.42;102138.16;7396289;19;20010;-45
2022/07/18 06:32:47;;;;;;;14.63;5.35;;;;;;;23.94;46.72;102138.50;7390502;19;20014;-49
2022/07/18 06:35:16;;;;;;;10.25;4.93;;;;;;;23.87;46.46;102139.97;7397340;19;20033;-51
2022/07/18 06:37:46;;;;;;;10.15;4.90;;;;;;;24.09;46.78;102137.25;7393062;19;20416;-48
2022/07/18 06:40:15;;;;;;;10.15;5.10;;;;;;;24.26;46.90;102130.53;7395844;19;20471;-50
2022/07/18 06:42:43;;;;;;;8.15;5.05;;;;;;;24.20;45.63;102133.72;7395152;19;20475;-47
2022/07/18 06:45:14;;;;;;;9.75;4.90;;;;;;;24.32;46.27;102130.03;7396105;19;20018;-46
2022/07/18 06:47:46;;;;;;;10.00;3.55;;;;;;;24.14;44.73;102132.41;7392101;19;20022;-48
2022/07/18 06:50:15;;;;;;;;;;;;;;;24.32;45.70;102130.03;7396793;19;20017;-44
2022/07/18 06:52:47;;;;;;;8.38;4.50;;;;;;;24.38;45.70;102134.03;7394456;19;20268;-44
2022/07/18 06:55:16;;;;;;;9.20;4.18;;;;;;;24.46;45.84;102136.94;7396363;19;20373;-45
2022/07/18 06:57:45;;;;;;;13.52;5.22;;;;;;;24.43;45.98;102142.53;7390839;19;20033;-44
2022/07/18 07:00:16;;;;;;;8.25;4.53;;;;;;;24.45;46.11;102134.38;7393273;19;20018;-44
2022/07/18 07:02:50;;;;;;;9.70;4.53;;;;;;;24.59;46.90;102142.13;7394848;19;20500;-45
2022/07/18 07:05:21;;;;;;;11.00;4.93;;;;;;;24.54;47.07;102149.69;7395331;19;20015;-44
2022/07/18 07:07:51;;;;;;;13.52;5.18;;;;;;;24.82;47.07;102142.91;7390951;19;20025;-44
2022/07/18 07:10:21;;;;;;;11.07;4.40;;;;;;;24.95;46.65;102137.34;7395136;19;20029;-49
2022/07/18 07:12:51;;;;;;;9.95;5.05;;;;;;;24.95;47.44;102144.56;7395192;19;20015;-48
2022/07/18 07:15:23;;;;;;;13.63;5.38;;;;;;;24.95;47.03;102139.19;7394041;19;20010;-44
2022/07/18 07:17:54;;;;;;;8.48;4.68;;;;;;;25.02;46.88;102140.38;7391298;19;20023;-53
2022/07/18 07:20:23;;;;;;;8.43;5.20;;;;;;;25.13;47.23;102131.38;7394751;19;20018;-44
2022/07/18 07:22:53;;;;;;;12.50;5.38;;;;;;;25.09;47.68;102132.63;7394266;19;20019;-43
2022/07/18 07:25:24;;;;;;;10.90;5.68;;;;;;;25.27;47.74;102130.22;7398211;19;20028;-44
2022/07/18 07:27:54;;;;;;;11.20;5.45;;;;;;;25.15;48.04;102132.13;7391637;19;20018;-45
2022/07/18 07:30:23;;;;;;;15.63;5.43;;;;;;;25.25;49.85;102132.19;7395765;19;20165;-44
2022/07/18 07:32:55;;;;;;;7.38;4.30;;;;;;;25.29;48.10;102136.28;7396224;19;20007;-46
2022/07/18 07:35:24;;;;;;;9.32;4.53;;;;;;;25.34;48.38;102128.72;7395022;19;20071;-46
2022/07/18 07:37:54;;;;;;;8.45;4.32;;;;;;;25.47;49.02;102123.97;7389657;19;20019;-44
2022/07/18 07:40:24;;;;;;;10.82;5.07;;;;;;;25.59;49.54;102124.75;7394791;19;20017;-44
2022/07/18 07:42:54;;;;;;;8.77;4.40;;;;;;;25.66;48.28;102123.25;7393167;19;20014;-46
2022/07/18 07:45:23;;;;;;;8.20;3.80;;;;;;;25.70;48.90;102116.63;7393256;19;20017;-44
2022/07/18 07:47:51;;;;;;;7.32;3.97;;;;;;;25.72;48.31;102128.06;7393227;19;20029;-43
2022/07/18 07:50:23;;;;;;;10.18;3.90;;;;;;;25.87;48.03;102117.78;7392044;19;20047;-48
2022/07/18 07:52:52;;;;;;;8.00;3.60;;;;;;;26.06;49.70;102116.16;7393662;19;20057;-48
2022/07/18 07:55:21;;;;;;;10.10;3.70;;;;;;;26.18;52.32;102120.44;7393816;19;20015;-46
2022/07/18 07:57:50;;;;;;;6.93;3.00;;;;;;;26.23;46.82;102130.75;7394338;19;20014;-45
2022/07/18 08:00:19;;;;;;;8.27;2.97;;;;;;;26.29;46.69;102119.44;7392918;19;20017;-48
2022/07/18 08:02:56;;;;;;;5.97;2.90;;;;;;;26.22;45.13;102127.22;7394782;19;20015;-49
2022/07/18 08:05:28;;;;;;;6.07;2.58;;;;;;;26.33;44.63;102128.09;7393525;19;20443;-47
2022/07/18 08:07:57;;;;;;;5.18;2.60;;;;;;;26.45;44.46;102126.09;7390409;19;20481;-51
2022/07/18 08:10:27;;;;;;;8.07;3.33;;;;;;;26.60;46.81;102124.69;7393871;19;20011;-47
2022/07/18 08:12:56;;;;;;;12.13;2.97;;;;;;;26.67;44.59;102130.38;7395471;19;20014;-48
2022/07/18 08:15:26;;;;;;;10.45;2.17;;;;;;;26.79;44.52;102125.72;7395375;19;20117;-52
2022/07/18 08:17:55;;;;;;;15.30;3.13;;;;;;;26.86;43.76;102126.84;7388675;19;20023;-50
2022/07/18 08:20:24;;;;;;;9.85;2.35;;;;;;;26.92;43.40;102118.19;7392887;19;20025;-46
2022/07/18 08:23:01;;;;;;;6.25;2.83;;;;;;;27.00;41.90;102123.69;7393324;19;20023;-54
2022/07/18 08:25:32;;;;;;;6.13;2.10;;;;;;;27.10;42.82;102126.38;7391789;19;20424;-47
2022/07/18 08:28:01;;;;;;;5.85;1.98;;;;;;;27.12;40.93;102113.63;7390609;19;20010;-48
2022/07/18 08:30:32;;;;;;;6.38;2.30;;;;;;;27.19;40.76;102111.19;7393051;19;20011;-48
2022/07/18 08:33:03;;;;;;;7.35;2.35;;;;;;;27.26;42.19;102112.31;7392608;19;20011;-50
2022/07/18 08:35:34;;;;;;;4.32;2.13;;;;;;;27.32;41.16;102106.34;7393340;19;20053;-53
2022/07/18 08:38:06;;;;;;;5.10;2.20;;;;;;;27.57;41.20;102106.72;7391553;19;20015;-52
2022/07/18 08:40:35;;;;;;;5.70;2.40;;;;;;;27.63;41.38;102109.63;7393271;19;20011;-49
2022/07/18 08:43:04;;;;;;;6.53;2.20;;;;;;;27.65;42.46;102116.72;7392284;19;20239;-50
2022/07/18 08:45:33;;;;;;;5.18;2.20;;;;;;;27.76;40.41;102108.44;7392338;19;20015;-49
2022/07/18 08:48:02;;;;;;;7.85;2.40;;;;;;;27.70;41.79;102101.81;7389022;19;20010;-50
2022/07/18 08:50:32;;;;;;;9.23;2.55;;;;;;;27.62;39.65;102097.19;7389718;19;20019;-49
2022/07/18 08:53:04;;;;;;;5.13;2.20;;;;;;;27.88;40.21;102099.19;7391144;19;20483;-51
2022/07/18 08:55:33;;;;;;;5.35;2.10;;;;;;;27.80;39.60;102108.00;7392835;19;20527;-46
2022/07/18 08:58:02;;;;;;;7.10;2.45;;;;;;;27.85;38.65;102104.84;7391522;19;20784;-52
2022/07/18 09:00:31;;;;;;;6.10;2.22;;;;;;;27.87;38.26;102102.88;7392708;19;20026;-48
2022/07/18 09:03:01;;;;;;;6.25;2.20;;;;;;;27.92;37.32;102111.31;7393545;19;20405;-47
2022/07/18 09:05:31;;;;;;;5.40;2.25;;;;;;;28.12;37.17;102104.00;7391533;19;20811;-45
2022/07/18 09:08:15;;;;;;;5.90;2.00;;;;;;;28.25;38.51;102108.16;7387604;19;20022;-46
2022/07/18 09:10:50;;;;;;;8.45;3.00;;;;;;;28.60;39.79;102104.63;7393857;19;20006;-45
2022/07/18 09:13:20;;;;;;;8.35;2.67;;;;;;;28.78;37.63;102107.31;7390920;19;20132;-46
2022/07/18 09:16:03;;;;;;;8.95;2.55;;;;;;;28.39;36.41;102102.25;7393107;19;20015;-50
2022/07/18 09:18:32;;;;;;;;;;;;;;;28.57;36.47;102094.16;7390950;19;20494;-46
2022/07/18 09:21:03;;;;;;;51.15;5.43;;;;;;;28.82;39.43;102102.47;7398223;19;19918;-52
2022/07/18 09:23:38;;;;;;;6.07;2.30;;;;;;;28.77;35.84;102107.47;7392392;19;20010;-47
2022/07/18 09:26:08;;;;;;;7.20;2.60;;;;;;;29.14;36.13;102107.25;7391527;19;20045;-50
2022/07/18 09:28:51;;;;;;;10.15;2.25;;;;;;;28.80;35.86;102113.41;7392079;19;20026;-46
2022/07/18 09:31:24;;;;;;;8.68;2.30;;;;;;;29.00;35.46;102105.97;7392715;19;20479;-52
2022/07/18 09:33:55;;;;;;;9.55;4.40;;;;;;;29.15;35.64;102108.06;7392240;19;20029;-49
2022/07/18 09:36:24;;;;;;;5.23;2.10;;;;;;;29.13;38.33;102102.84;7390961;19;20475;-48
2022/07/18 09:38:57;;;;;;;7.25;2.55;;;;;;;29.18;35.71;102096.94;7397533;19;20015;-49
2022/07/18 09:41:27;;;;;;;5.88;1.92;;;;;;;29.18;32.54;102087.00;7397108;19;20444;-49
2022/07/18 09:43:56;;;;;;;5.18;2.05;;;;;;;29.24;34.50;102095.50;7399370;19;20015;-46
2022/07/18 09:46:25;;;;;;;5.75;2.13;;;;;;;29.51;34.28;102089.03;7396582;19;20014;-46
2022/07/18 09:49:12;;;;;;;7.13;1.95;;;;;;;29.42;33.28;102095.44;7394924;19;20369;-48
2022/07/18 09:51:59;;;;;;;5.65;2.08;;;;;;;29.34;35.34;102085.41;7399540;19;20014;-49
2022/07/18 09:54:41;;;;;;;5.72;2.00;;;;;;;29.79;35.58;102088.78;7399647;19;20022;-47
2022/07/18 09:57:11;;;;;;;4.72;2.17;;;;;;;30.09;32.90;102087.41;7396240;19;20487;-51
2022/07/18 09:59:40;;;;;;;6.88;2.33;;;;;;;30.19;32.02;102087.25;7394378;19;20025;-46
2022/07/18 10:02:09;;;;;;;5.53;2.47;;;;;;;30.34;32.74;102087.41;7398818;19;20459;-50
2022/07/18 10:04:38;;;;;;;5.28;2.20;;;;;;;30.36;32.42;102090.78;7395352;19;20026;-48
2022/07/18 10:07:07;;;;;;;8.75;2.00;;;;;;;30.16;32.02;102087.56;7398446;19;20033;-47
2022/07/18 10:09:40;;;;;;;6.75;2.00;;;;;;;29.87;30.08;102079.91;7394903;19;20480;-49
2022/07/18 10:12:10;;;;;;;8.48;2.22;;;;;;;29.82;31.25;102077.69;7396934;19;20111;-47
2022/07/18 10:14:40;;;;;;;14.63;3.00;;;;;;;29.83;31.74;102082.09;7396094;19;20014;-48
2022/07/18 10:17:09;;;;;;;13.43;2.67;;;;;;;29.88;32.13;102077.03;7399033;19;20044;-49
2022/07/18 10:19:38;;;;;;;7.15;2.10;;;;;;;29.90;33.58;102079.56;7394193;19;20019;-48
2022/07/18 10:22:09;;;;;;;4.57;2.42;;;;;;;29.82;32.75;102081.22;7399439;19;20011;-47
2022/07/18 10:24:42;;;;;;;5.95;2.63;;;;;;;29.88;32.12;102081.63;7393843;19;20026;-51
2022/07/18 10:27:15;;;;;;;4.88;2.30;;;;;;;30.13;33.00;102080.66;7394309;19;20022;-48
2022/07/18 10:30:12;;;;;;;8.20;2.35;;;;;;;30.18;31.42;102082.84;7393365;19;20033;-51
2022/07/18 10:32:41;;;;;;;5.18;1.83;;;;;;;30.37;30.98;102085.22;7395336;19;20018;-50
2022/07/18 10:35:13;;;;;;;4.05;2.00;;;;;;;30.37;30.96;102082.50;7397401;19;20018;-46
2022/07/18 10:37:42;;;;;;;6.03;2.67;;;;;;;30.58;32.39;102078.50;7396093;19;20022;-49
2022/07/18 10:40:29;;;;;;;3.50;1.88;;;;;;;30.71;30.87;102073.41;7394607;19;20030;-49
2022/07/18 10:43:29;;;;;;;3.85;1.67;;;;;;;30.87;30.00;102077.09;7396158;19;20126;-46
2022/07/18 10:45:58;;;;;;;3.17;2.00;;;;;;;30.87;30.57;102079.81;7394412;19;20016;-46
2022/07/18 10:48:57;;;;;;;3.55;1.65;;;;;;;30.95;29.61;102071.69;7391776;19;20014;-49
2022/07/18 10:51:37;;;;;;;3.58;2.03;;;;;;;31.07;29.59;102065.94;7396474;19;20045;-46
2022/07/18 10:54:11;;;;;;;3.72;1.98;;;;;;;31.13;30.17;102071.47;7397691;19;20128;-48
2022/07/18 10:57:11;;;;;;;7.95;1.98;;;;;;;31.12;29.84;102067.09;7396019;19;20017;-46
2022/07/18 11:00:04;;;;;;;14.38;2.50;;;;;;;31.45;30.43;102072.41;7395231;19;20018;-49
2022/07/18 11:02:35;;;;;;;4.43;1.90;;;;;;;31.53;29.81;102074.22;7393990;19;20014;-50
2022/07/18 11:05:25;;;;;;;8.93;2.08;;;;;;;31.71;30.01;102064.00;7391794;19;20486;-49
2022/07/18 11:08:19;;;;;;;7.30;1.63;;;;;;;31.49;28.17;102067.44;7389429;19;20011;-49
2022/07/18 11:11:14;;;;;;;5.47;1.77;;;;;;;31.95;28.83;102066.72;7394467;19;20111;-50
2022/07/18 11:13:51;;;;;;;4.85;1.70;;;;;;;32.02;28.54;102063.09;7396361;19;20025;-44
2022/07/18 11:16:25;;;;;;;4.63;1.77;;;;;;;32.33;28.18;102062.22;7395432;19;20015;-48
2022/07/18 11:19:26;;;;;;;13.32;2.33;;;;;;;32.67;28.32;102066.34;7395043;19;20023;-48
2022/07/18 11:22:00;;;;;;;11.15;2.72;;;;;;;32.93;27.85;102062.38;7396364;19;20011;-52
2022/07/18 11:24:29;;;;;;;5.10;1.80;;;;;;;33.14;27.91;102067.03;7392568;19;20019;-50
2022/07/18 11:26:58;;;;;;;27.75;2.78;;;;;;;33.33;28.17;102057.50;7395129;19;20019;-51
2022/07/18 11:29:31;;;;;;;3.72;1.90;;;;;;;33.33;26.56;102057.50;7392511;19;20018;-46
2022/07/18 11:32:03;;;;;;;13.60;2.80;;;;;;;33.78;28.31;102044.66;7394093;19;20006;-46
2022/07/18 11:34:31;;;;;;;5.68;3.33;;;;;;;34.00;29.32;102050.13;7395836;19;20551;-49
2022/07/18 11:37:00;;;;;;;6.10;2.30;;;;;;;34.17;27.33;102044.44;7395781;19;20030;-51
2022/07/18 11:39:32;;;;;;;6.07;1.80;;;;;;;34.79;26.33;102045.56;7391489;19;20017;-49
2022/07/18 11:42:02;;;;;;;6.22;2.00;;;;;;;35.07;24.96;102045.53;7396607;19;20048;-51
2022/07/18 11:44:33;;;;;;;4.85;2.03;;;;;;;35.03;24.26;102038.81;7391477;19;20086;-52